createdAt,value
2018-02-03T00:00:16.044Z,4.91
2018-02-03T00:01:15.963Z,4.95
2018-02-03T00:02:16.963Z,4.94
2018-02-03T00:03:15.832Z,4.94
2018-02-03T00:04:15.826Z,4.92
2018-02-03T00:05:15.814Z,4.94
2018-02-03T00:06:15.806Z,4.86
2018-02-03T00:07:15.798Z,4.80
2018-02-03T00:08:15.792Z,4.75
2018-02-03T00:09:15.785Z,4.84
2018-02-03T00:10:16.820Z,4.94
2018-02-03T00:11:15.768Z,4.84
2018-02-03T00:12:16.965Z,4.70
2018-02-03T00:13:15.752Z,4.67
2018-02-03T00:14:15.755Z,4.80
2018-02-03T00:15:15.736Z,4.80
2018-02-03T00:16:15.733Z,4.72
2018-02-03T00:17:15.724Z,4.75
2018-02-03T00:18:15.714Z,4.89
2018-02-03T00:19:15.708Z,4.86
2018-02-03T00:20:15.697Z,4.86
2018-02-03T00:21:15.690Z,4.80
2018-02-03T00:22:15.684Z,4.92
2018-02-03T00:23:15.679Z,4.84
2018-02-03T00:24:15.667Z,4.80
2018-02-03T00:25:15.660Z,4.69
2018-02-03T00:26:15.654Z,4.70
2018-02-03T00:27:15.645Z,4.67
2018-02-03T00:28:15.637Z,4.67
2018-02-03T00:29:15.659Z,4.65
2018-02-03T00:30:15.623Z,4.70
2018-02-03T00:31:15.614Z,4.77
2018-02-03T00:32:15.608Z,4.77
2018-02-03T00:33:15.599Z,4.54
2018-02-03T00:34:15.593Z,4.69
2018-02-03T00:35:15.582Z,4.69
2018-02-03T00:36:15.574Z,4.77
2018-02-03T00:37:15.570Z,4.72
2018-02-03T00:38:15.556Z,4.73
2018-02-03T00:39:15.556Z,4.94
2018-02-03T00:40:15.545Z,4.83
2018-02-03T00:41:15.535Z,4.70
2018-02-03T00:42:15.526Z,4.88
2018-02-03T00:43:15.521Z,4.67
2018-02-03T00:44:15.514Z,4.77
2018-02-03T00:45:15.504Z,4.75
2018-02-03T00:46:24.188Z,4.69
2018-02-03T00:48:08.900Z,4.64
2018-02-03T00:49:08.861Z,4.67
2018-02-03T00:50:08.853Z,4.55
2018-02-03T00:51:08.846Z,4.50
2018-02-03T00:52:19.562Z,4.57
2018-02-03T00:54:11.302Z,4.73
2018-02-03T00:56:23.501Z,4.88
2018-02-03T00:57:23.456Z,4.77
2018-02-03T00:59:16.832Z,4.77
2018-02-03T01:00:16.816Z,4.70
2018-02-03T01:01:16.801Z,4.67
2018-02-03T01:02:16.792Z,4.52
2018-02-03T01:03:16.789Z,4.59
2018-02-03T01:04:16.780Z,4.57
2018-02-03T01:05:16.789Z,4.47
2018-02-03T01:06:16.762Z,4.42
2018-02-03T01:07:16.755Z,4.39
2018-02-03T01:08:16.745Z,4.40
2018-02-03T01:09:16.736Z,4.37
2018-02-03T01:11:46.848Z,4.54
2018-02-03T01:12:37.754Z,4.47
2018-02-03T01:14:58.804Z,4.62
2018-02-03T01:15:58.770Z,4.67
2018-02-03T01:16:58.774Z,4.73
2018-02-03T01:17:58.756Z,4.67
2018-02-03T01:18:58.748Z,4.72
2018-02-03T01:19:58.739Z,4.61
2018-02-03T01:20:58.760Z,4.64
2018-02-03T01:21:58.720Z,4.72
2018-02-03T01:22:58.712Z,4.55
2018-02-03T01:23:58.706Z,4.50
2018-02-03T01:24:58.698Z,4.40
2018-02-03T01:25:58.687Z,4.43
2018-02-03T01:26:58.679Z,4.50
2018-02-03T01:27:58.686Z,4.37
2018-02-03T01:28:58.662Z,4.47
2018-02-03T01:29:58.653Z,4.57
2018-02-03T01:30:58.650Z,4.57
2018-02-03T01:31:58.642Z,4.52
2018-02-03T01:32:58.631Z,4.52
2018-02-03T01:33:58.647Z,4.62
2018-02-03T01:34:58.613Z,4.73
2018-02-03T01:35:58.607Z,4.72
2018-02-03T01:36:58.599Z,4.67
2018-02-03T01:37:58.592Z,4.67
2018-02-03T01:38:58.580Z,4.62
2018-02-03T01:39:58.576Z,4.64
2018-02-03T01:40:58.569Z,4.50
2018-02-03T01:41:58.557Z,4.57
2018-02-03T01:42:58.548Z,4.54
2018-02-03T01:43:58.544Z,4.73
2018-02-03T01:44:58.545Z,4.70
2018-02-03T01:45:58.525Z,4.70
2018-02-03T01:46:58.518Z,4.64
2018-02-03T01:47:58.509Z,4.70
2018-02-03T01:48:58.502Z,4.69
2018-02-03T01:49:58.494Z,4.65
2018-02-03T01:50:58.484Z,4.52
2018-02-03T01:51:58.477Z,4.59
2018-02-03T01:52:58.473Z,4.52
2018-02-03T01:53:58.461Z,4.47
2018-02-03T01:54:58.454Z,4.59
2018-02-03T01:55:58.445Z,4.55
2018-02-03T01:56:58.437Z,4.58
2018-02-03T01:57:58.435Z,4.62
2018-02-03T01:58:58.421Z,4.59
2018-02-03T01:59:58.418Z,4.40
2018-02-03T02:00:58.404Z,4.50
2018-02-03T02:01:58.396Z,4.51
2018-02-03T02:02:58.389Z,4.47
2018-02-03T02:03:58.386Z,4.61
2018-02-03T02:04:58.372Z,4.62
2018-02-03T02:05:58.363Z,4.57
2018-02-03T02:06:58.360Z,4.54
2018-02-03T02:07:58.350Z,4.51
2018-02-03T02:08:58.340Z,4.46
2018-02-03T02:09:58.331Z,4.52
2018-02-03T02:10:58.326Z,4.46
2018-02-03T02:11:58.317Z,4.57
2018-02-03T02:12:58.307Z,4.65
2018-02-03T02:13:58.305Z,4.59
2018-02-03T02:14:58.291Z,4.47
2018-02-03T02:15:58.284Z,4.58
2018-02-03T02:16:58.279Z,4.61
2018-02-03T02:17:58.268Z,4.59
2018-02-03T02:18:58.261Z,4.57
2018-02-03T02:19:58.251Z,4.51
2018-02-03T02:20:58.248Z,4.55
2018-02-03T02:21:58.235Z,4.42
2018-02-03T02:22:58.230Z,4.40
2018-02-03T02:23:58.224Z,4.51
2018-02-03T02:24:58.210Z,4.57
2018-02-03T02:25:58.201Z,4.58
2018-02-03T02:26:58.196Z,4.69
2018-02-03T02:27:58.192Z,4.69
2018-02-03T02:28:58.184Z,4.55
2018-02-03T02:29:58.174Z,4.62
2018-02-03T02:30:58.162Z,4.70
2018-02-03T02:31:58.156Z,4.58
2018-02-03T02:32:58.147Z,4.58
2018-02-03T02:33:58.142Z,4.62
2018-02-03T02:34:58.131Z,4.65
2018-02-03T02:35:58.124Z,4.72
2018-02-03T02:36:58.119Z,4.61
2018-02-03T02:37:58.109Z,4.58
2018-02-03T02:38:58.098Z,4.55
2018-02-03T02:39:58.090Z,4.65
2018-02-03T02:40:58.085Z,4.54
2018-02-03T02:41:58.075Z,4.55
2018-02-03T02:42:58.064Z,4.59
2018-02-03T02:43:58.064Z,4.69
2018-02-03T02:44:58.050Z,4.54
2018-02-03T02:45:58.045Z,4.62
2018-02-03T02:46:58.034Z,4.59
2018-02-03T02:47:58.025Z,4.72
2018-02-03T02:48:58.023Z,4.58
2018-02-03T02:49:58.013Z,4.52
2018-02-03T02:50:58.004Z,4.51
2018-02-03T02:51:57.996Z,4.61
2018-02-03T02:52:57.993Z,4.61
2018-02-03T02:53:57.979Z,4.55
2018-02-03T02:54:57.972Z,4.65
2018-02-03T02:55:57.963Z,4.57
2018-02-03T02:56:57.956Z,4.73
2018-02-03T02:57:57.947Z,4.57
2018-02-03T02:58:57.940Z,4.47
2018-02-03T02:59:57.931Z,4.62
2018-02-03T03:00:57.923Z,4.62
2018-02-03T03:01:57.917Z,4.54
2018-02-03T03:02:57.908Z,4.52
2018-02-03T03:03:57.899Z,4.70
2018-02-03T03:23:16.502Z,4.37
2018-02-03T03:24:16.451Z,4.39
2018-02-03T03:25:16.437Z,4.40
2018-02-03T03:26:16.429Z,4.32
2018-02-03T03:27:16.416Z,4.32
2018-02-03T03:28:16.400Z,4.33
2018-02-03T03:29:16.399Z,4.29
2018-02-03T03:30:16.384Z,4.34
2018-02-03T03:31:16.369Z,4.28
2018-02-03T03:32:16.358Z,4.29
2018-02-03T03:33:16.351Z,4.32
2018-02-03T03:34:16.345Z,4.36
2018-02-03T03:35:16.335Z,4.25
2018-02-03T03:36:16.316Z,4.29
2018-02-03T03:37:16.312Z,4.34
2018-02-03T03:38:16.300Z,4.16
2018-02-03T03:39:16.292Z,4.25
2018-02-03T03:40:16.281Z,4.36
2018-02-03T03:41:16.273Z,4.33
2018-02-03T03:42:16.264Z,4.24
2018-02-03T03:43:16.256Z,4.37
2018-02-03T03:44:16.245Z,4.43
2018-02-03T03:45:16.249Z,4.44
2018-02-03T03:46:16.230Z,4.39
2018-02-03T03:47:16.224Z,4.39
2018-02-03T03:48:16.215Z,4.36
2018-02-03T03:49:16.205Z,4.24
2018-02-03T03:50:16.197Z,4.29
2018-02-03T03:51:16.199Z,4.26
2018-02-03T03:52:16.181Z,4.21
2018-02-03T03:53:16.172Z,4.29
2018-02-03T03:54:16.167Z,4.18
2018-02-03T03:55:16.177Z,4.25
2018-02-03T03:56:16.147Z,4.29
2018-02-03T03:57:16.139Z,4.10
2018-02-03T03:58:16.137Z,4.22
2018-02-03T03:59:16.122Z,4.32
2018-02-03T04:00:16.114Z,4.28
2018-02-03T04:01:16.129Z,4.26
2018-02-03T04:02:16.111Z,4.26
2018-02-03T04:03:16.089Z,4.26
2018-02-03T04:04:16.080Z,4.21
2018-02-03T04:05:16.075Z,4.36
2018-02-03T04:06:16.064Z,4.39
2018-02-03T04:07:16.116Z,4.32
2018-02-03T04:08:16.064Z,4.25
2018-02-03T04:09:16.056Z,4.29
2018-02-03T04:10:16.032Z,4.42
2018-02-03T04:11:16.026Z,4.33
2018-02-03T04:12:16.015Z,4.43
2018-02-03T04:13:16.008Z,4.28
2018-02-03T04:14:15.999Z,4.29
2018-02-03T04:15:15.992Z,4.24
2018-02-03T04:16:15.983Z,4.42
2018-02-03T04:17:15.973Z,4.40
2018-02-03T04:18:15.968Z,4.39
2018-02-03T04:19:15.962Z,4.42
2018-02-03T04:20:15.952Z,4.39
2018-02-03T04:21:15.944Z,4.46
2018-02-03T04:22:15.936Z,4.28
2018-02-03T04:23:15.928Z,4.37
2018-02-03T04:24:15.919Z,4.44
2018-02-03T04:25:15.911Z,4.32
2018-02-03T04:26:15.907Z,4.40
2018-02-03T04:27:15.896Z,4.37
2018-02-03T04:28:15.916Z,4.50
2018-02-03T04:29:15.879Z,4.43
2018-02-03T04:30:15.869Z,4.43
2018-02-03T04:31:15.864Z,4.42
2018-02-03T04:32:15.853Z,4.42
2018-02-03T04:33:15.847Z,4.50
2018-02-03T04:34:15.838Z,4.42
2018-02-03T04:35:15.830Z,4.42
2018-02-03T04:36:15.822Z,4.52
2018-02-03T04:37:15.815Z,4.52
2018-02-03T04:38:15.807Z,4.42
2018-02-03T04:39:15.801Z,4.43
2018-02-03T04:40:15.790Z,4.52
2018-02-03T04:41:15.784Z,4.32
2018-02-03T04:42:15.774Z,4.50
2018-02-03T04:43:15.770Z,4.44
2018-02-03T04:44:15.758Z,4.34
2018-02-03T04:45:15.750Z,4.29
2018-02-03T04:46:15.743Z,4.29
2018-02-03T04:47:15.735Z,4.42
2018-02-03T04:48:15.729Z,4.24
2018-02-03T04:49:15.719Z,4.24
2018-02-03T04:50:15.718Z,4.24
2018-02-03T04:51:15.706Z,4.28
2018-02-03T04:52:15.694Z,4.25
2018-02-03T04:53:15.687Z,4.29
2018-02-03T04:54:15.678Z,4.39
2018-02-03T04:55:15.673Z,4.42
2018-02-03T04:56:15.663Z,4.44
2018-02-03T04:57:15.659Z,4.39
2018-02-03T04:58:15.648Z,4.34
2018-02-03T04:59:15.640Z,4.24
2018-02-03T05:00:15.674Z,4.37
2018-02-03T05:01:15.623Z,4.40
2018-02-03T05:02:15.621Z,4.39
2018-02-03T05:03:15.606Z,4.40
2018-02-03T05:04:15.685Z,4.29
2018-02-03T05:05:15.592Z,4.28
2018-02-03T05:06:15.582Z,4.15
2018-02-03T05:07:15.580Z,4.26
2018-02-03T05:08:15.569Z,4.29
2018-02-03T05:09:15.564Z,4.28
2018-02-03T05:10:15.553Z,4.26
2018-02-03T05:11:15.586Z,4.36
2018-02-03T05:12:15.536Z,4.34
2018-02-03T05:13:15.529Z,4.44
2018-02-03T05:14:15.524Z,4.29
2018-02-03T05:15:15.513Z,4.26
2018-02-03T05:16:15.503Z,4.21
2018-02-03T05:17:15.496Z,4.18
2018-02-03T05:18:15.492Z,4.18
2018-02-03T05:19:15.479Z,4.16
2018-02-03T05:20:15.470Z,4.04
2018-02-03T05:21:15.462Z,4.08
2018-02-03T05:22:15.462Z,4.03
2018-02-03T05:23:15.453Z,4.15
2018-02-03T05:24:15.441Z,4.42
2018-02-03T05:25:15.493Z,4.26
2018-02-03T05:26:15.426Z,4.00
2018-02-03T05:27:15.417Z,4.07
2018-02-03T05:28:15.413Z,4.16
2018-02-03T05:29:15.406Z,4.01
2018-02-03T05:30:15.393Z,4.18
2018-02-03T05:31:15.383Z,4.15
2018-02-03T05:32:15.375Z,4.21
2018-02-03T05:33:15.368Z,4.14
2018-02-03T05:34:15.358Z,4.21
2018-02-03T05:35:15.352Z,4.18
2018-02-03T05:36:15.343Z,4.29
2018-02-03T05:37:15.386Z,4.24
2018-02-03T05:38:15.328Z,4.33
2018-02-03T05:39:15.322Z,4.29
2018-02-03T05:40:15.311Z,4.22
2018-02-03T05:41:15.301Z,4.12
2018-02-03T05:42:15.299Z,4.14
2018-02-03T05:43:15.290Z,4.00
2018-02-03T05:44:15.277Z,4.12
2018-02-03T05:45:15.269Z,4.18
2018-02-03T05:46:15.262Z,4.21
2018-02-03T05:47:15.253Z,4.16
2018-02-03T05:48:15.245Z,4.15
2018-02-03T05:49:15.238Z,4.12
2018-02-03T05:50:15.230Z,4.03
2018-02-03T05:51:15.223Z,3.92
2018-02-03T05:52:15.212Z,4.04
2018-02-03T05:53:15.206Z,4.03
2018-02-03T05:54:15.198Z,3.98
2018-02-03T05:55:15.195Z,4.19
2018-02-03T05:56:15.204Z,4.10
2018-02-03T05:57:15.171Z,4.19
2018-02-03T05:58:15.164Z,4.15
2018-02-03T05:59:15.157Z,4.12
2018-02-03T06:00:15.149Z,4.16
2018-02-03T06:01:15.140Z,4.15
2018-02-03T06:02:15.131Z,4.10
2018-02-03T06:03:15.181Z,4.19
2018-02-03T06:04:15.120Z,4.25
2018-02-03T06:05:15.108Z,4.37
2018-02-03T06:06:15.100Z,4.19
2018-02-03T06:07:15.093Z,4.24
2018-02-03T06:08:15.086Z,4.29
2018-02-03T06:09:15.080Z,4.29
2018-02-03T06:10:15.070Z,4.25
2018-02-03T06:11:15.062Z,4.29
2018-02-03T06:12:15.052Z,4.16
2018-02-03T06:13:15.043Z,4.12
2018-02-03T06:14:15.034Z,4.24
2018-02-03T06:15:15.028Z,4.22
2018-02-03T06:16:15.026Z,4.26
2018-02-03T06:17:15.012Z,4.07
2018-02-03T06:18:15.004Z,3.90
2018-02-03T06:19:14.997Z,3.88
2018-02-03T06:20:14.986Z,4.12
2018-02-03T06:21:14.980Z,4.16
2018-02-03T06:22:14.970Z,4.10
2018-02-03T06:23:23.642Z,4.15
2018-02-03T06:25:17.438Z,3.98
2018-02-03T06:27:29.402Z,3.90
2018-02-03T06:28:38.000Z,3.96
2018-02-03T06:30:22.720Z,4.04
2018-02-03T06:31:22.709Z,4.12
2018-02-03T06:32:22.695Z,4.01
2018-02-03T06:33:22.688Z,4.10
2018-02-03T06:34:31.321Z,4.18
2018-02-03T06:36:25.186Z,4.01
2018-02-03T06:38:46.210Z,3.90
2018-02-03T06:39:37.113Z,3.92
2018-02-03T06:40:45.752Z,3.97
2018-02-03T06:42:31.512Z,4.04
2018-02-03T06:43:31.454Z,4.06
2018-02-03T06:45:24.858Z,3.79
2018-02-03T06:46:24.849Z,3.98
2018-02-03T06:47:33.516Z,4.12
2018-02-03T06:49:17.769Z,3.86
2018-02-03T06:50:17.697Z,3.90
2018-02-03T06:52:11.074Z,3.85
2018-02-03T06:53:11.060Z,3.72
2018-02-03T06:54:11.058Z,3.88
2018-02-03T06:55:11.044Z,3.89
2018-02-03T06:56:11.038Z,4.04
2018-02-03T06:57:11.027Z,4.01
2018-02-03T06:58:11.019Z,3.82
2018-02-03T06:59:11.011Z,3.75
2018-02-03T07:00:11.000Z,3.86
2018-02-03T07:01:10.996Z,3.80
2018-02-03T07:02:10.988Z,3.79
2018-02-03T07:03:11.001Z,3.88
2018-02-03T07:04:10.975Z,3.72
2018-02-03T07:05:10.958Z,3.82
2018-02-03T07:06:10.950Z,3.71
2018-02-03T07:07:10.941Z,3.72
2018-02-03T07:08:10.977Z,3.76
2018-02-03T07:09:10.931Z,3.78
2018-02-03T07:10:10.921Z,3.78
2018-02-03T07:11:10.909Z,3.75
2018-02-03T07:12:10.902Z,3.82
2018-02-03T07:13:10.892Z,3.82
2018-02-03T07:14:10.892Z,3.89
2018-02-03T07:15:10.917Z,3.88
2018-02-03T07:16:10.867Z,3.83
2018-02-03T07:17:10.891Z,3.88
2018-02-03T07:18:10.849Z,3.83
2018-02-03T07:19:10.840Z,3.89
2018-02-03T07:20:10.832Z,3.82
2018-02-03T07:21:10.826Z,3.88
2018-02-03T07:22:10.816Z,3.90
2018-02-03T07:23:10.806Z,3.88
2018-02-03T07:24:10.798Z,3.80
2018-02-03T07:25:10.789Z,3.78
2018-02-03T07:26:10.786Z,3.82
2018-02-03T07:27:10.777Z,3.88
2018-02-03T07:28:10.762Z,3.85
2018-02-03T07:29:10.757Z,3.94
2018-02-03T07:30:10.748Z,4.06
2018-02-03T07:31:10.736Z,4.06
2018-02-03T07:32:10.746Z,3.90
2018-02-03T07:33:10.723Z,3.92
2018-02-03T07:34:10.714Z,3.90
2018-02-03T07:35:10.702Z,3.90
2018-02-03T07:36:10.693Z,3.94
2018-02-03T07:37:10.689Z,4.16
2018-02-03T07:38:10.679Z,3.97
2018-02-03T07:39:10.671Z,3.90
2018-02-03T07:40:10.673Z,3.94
2018-02-03T07:41:10.661Z,3.94
2018-02-03T07:42:10.647Z,3.88
2018-02-03T07:43:10.642Z,3.98
2018-02-03T07:44:10.631Z,3.88
2018-02-03T07:45:10.618Z,3.98
2018-02-03T07:46:10.611Z,3.96
2018-02-03T07:47:10.601Z,3.86
2018-02-03T07:48:10.603Z,3.72
2018-02-03T07:49:10.600Z,3.70
2018-02-03T07:50:10.578Z,3.78
2018-02-03T07:51:10.570Z,3.67
2018-02-03T07:52:10.561Z,3.78
2018-02-03T07:53:10.556Z,3.80
2018-02-03T07:54:10.544Z,3.88
2018-02-03T07:55:19.661Z,3.92
2018-02-03T07:57:03.958Z,3.85
2018-02-03T07:58:03.917Z,3.71
2018-02-03T07:59:03.930Z,3.89
2018-02-03T08:00:03.955Z,3.94
2018-02-03T08:01:03.894Z,3.94
2018-02-03T08:02:03.885Z,3.85
2018-02-03T08:03:03.873Z,3.94
2018-02-03T08:04:03.867Z,3.94
2018-02-03T08:05:03.863Z,3.89
2018-02-03T08:06:03.851Z,3.97
2018-02-03T08:07:03.840Z,4.07
2018-02-03T08:08:03.833Z,4.03
2018-02-03T08:09:03.823Z,3.94
2018-02-03T08:10:03.816Z,3.96
2018-02-03T08:11:03.810Z,3.98
2018-02-03T08:12:03.805Z,4.01
2018-02-03T08:13:03.796Z,3.90
2018-02-03T08:14:03.780Z,3.92
2018-02-03T08:15:03.772Z,3.94
2018-02-03T08:16:03.762Z,3.98
2018-02-03T08:17:03.759Z,4.04
2018-02-03T08:18:03.746Z,3.92
2018-02-03T08:19:03.743Z,4.04
2018-02-03T08:20:03.736Z,3.92
2018-02-03T08:21:03.721Z,4.04
2018-02-03T08:22:03.711Z,4.15
2018-02-03T08:23:03.718Z,4.04
2018-02-03T08:24:03.693Z,4.19
2018-02-03T08:25:03.686Z,4.14
2018-02-03T08:26:03.680Z,4.06
2018-02-03T08:27:03.667Z,4.18
2018-02-03T08:28:03.661Z,4.10
2018-02-03T08:29:03.653Z,4.15
2018-02-03T08:30:03.644Z,4.26
2018-02-03T08:31:03.635Z,4.15
2018-02-03T08:32:03.626Z,4.16
2018-02-03T08:33:03.619Z,4.03
2018-02-03T08:34:03.614Z,3.96
2018-02-03T08:35:03.617Z,4.10
2018-02-03T08:36:03.592Z,4.18
2018-02-03T08:37:03.582Z,4.25
2018-02-03T08:38:03.573Z,4.33
2018-02-03T08:39:03.571Z,4.39
2018-02-03T08:40:03.560Z,4.34
2018-02-03T08:41:03.550Z,4.08
2018-02-03T08:42:03.545Z,4.24
2018-02-03T08:43:03.536Z,4.26
2018-02-03T08:44:03.525Z,4.15
2018-02-03T08:45:03.516Z,4.28
2018-02-03T08:46:03.504Z,4.44
2018-02-03T08:47:03.500Z,4.33
2018-02-03T08:48:03.497Z,4.21
2018-02-03T08:49:03.481Z,4.00
2018-02-03T08:50:03.480Z,4.15
2018-02-03T08:51:03.462Z,4.07
2018-02-03T08:52:03.454Z,4.33
2018-02-03T08:53:03.448Z,4.22
2018-02-03T08:54:03.437Z,4.40
2018-02-03T08:55:03.433Z,4.47
2018-02-03T08:56:03.424Z,4.43
2018-02-03T08:57:03.418Z,4.51
2018-02-03T08:58:03.404Z,4.42
2018-02-03T08:59:03.400Z,4.52
2018-02-03T09:00:03.389Z,4.36
2018-02-03T09:01:03.384Z,4.43
2018-02-03T09:02:03.371Z,4.50
2018-02-03T09:03:03.363Z,4.51
2018-02-03T09:04:03.353Z,4.51
2018-02-03T09:05:03.390Z,4.50
2018-02-03T09:06:03.338Z,4.33
2018-02-03T09:07:03.330Z,4.42
2018-02-03T09:08:03.323Z,4.39
2018-02-03T09:09:03.315Z,4.51
2018-02-03T09:10:03.306Z,4.73
2018-02-03T09:11:03.298Z,4.62
2018-02-03T09:12:03.290Z,4.50
2018-02-03T09:13:03.279Z,4.43
2018-02-03T09:14:03.275Z,4.39
2018-02-03T09:15:03.262Z,4.36
2018-02-03T09:16:03.258Z,4.46
2018-02-03T09:17:03.297Z,4.36
2018-02-03T09:18:03.242Z,4.33
2018-02-03T09:19:03.233Z,4.40
2018-02-03T09:20:03.224Z,4.52
2018-02-03T09:21:03.251Z,4.52
2018-02-03T09:22:03.205Z,4.72
2018-02-03T09:23:03.198Z,4.80
2018-02-03T09:24:03.191Z,4.91
2018-02-03T09:25:03.182Z,4.94
2018-02-03T09:26:03.174Z,4.88
2018-02-03T09:27:03.165Z,4.80
2018-02-03T09:28:03.165Z,4.98
2018-02-03T09:29:03.147Z,4.96
2018-02-03T09:30:03.140Z,4.91
2018-02-03T09:31:03.130Z,4.77
2018-02-03T09:32:03.124Z,4.77
2018-02-03T09:33:03.118Z,4.98
2018-02-03T09:34:03.115Z,4.96
2018-02-03T09:35:03.101Z,4.95
2018-02-03T09:36:03.093Z,4.98
2018-02-03T09:37:03.083Z,4.98
2018-02-03T09:38:03.074Z,4.99
2018-02-03T09:39:03.070Z,5.05
2018-02-03T09:40:03.059Z,4.95
2018-02-03T09:41:03.050Z,4.83
2018-02-03T09:42:03.050Z,4.91
2018-02-03T09:43:03.034Z,4.76
2018-02-03T09:44:03.025Z,4.98
2018-02-03T09:45:03.019Z,4.86
2018-02-03T09:46:03.027Z,4.73
2018-02-03T09:47:03.005Z,4.92
2018-02-03T09:48:02.994Z,4.95
2018-02-03T09:49:02.990Z,4.88
2018-02-03T09:50:02.975Z,4.77
2018-02-03T09:51:02.970Z,4.89
2018-02-03T09:52:02.961Z,4.95
2018-02-03T09:53:02.952Z,4.99
2018-02-03T09:54:11.681Z,4.95
2018-02-03T09:55:56.440Z,5.16
2018-02-03T09:56:56.360Z,5.13
2018-02-03T09:57:56.352Z,5.19
2018-02-03T09:58:56.341Z,5.13
2018-02-03T09:59:56.376Z,5.02
2018-02-03T10:00:56.376Z,4.92
2018-02-03T10:01:56.323Z,4.98
2018-02-03T10:02:56.309Z,4.95
2018-02-03T10:03:56.302Z,4.98
2018-02-03T10:04:56.292Z,5.05
2018-02-03T10:05:56.286Z,4.98
2018-02-03T10:06:56.276Z,5.12
2018-02-03T10:07:56.269Z,4.89
2018-02-03T10:08:56.261Z,4.77
2018-02-03T10:09:56.256Z,4.92
2018-02-03T10:10:56.245Z,4.80
2018-02-03T10:11:56.238Z,4.67
2018-02-03T10:12:56.230Z,4.89
2018-02-03T10:13:56.222Z,4.94
2018-02-03T10:14:56.211Z,4.95
2018-02-03T10:15:56.211Z,4.95
2018-02-03T10:16:56.206Z,4.83
2018-02-03T10:17:56.187Z,4.75
2018-02-03T10:18:56.182Z,4.79
2018-02-03T10:19:56.172Z,4.96
2018-02-03T10:20:56.163Z,4.83
2018-02-03T10:21:56.206Z,4.91
2018-02-03T10:22:56.152Z,4.95
2018-02-03T10:23:56.142Z,4.79
2018-02-03T10:24:56.131Z,4.86
2018-02-03T10:25:56.123Z,5.02
2018-02-03T10:26:56.121Z,4.94
2018-02-03T10:27:56.108Z,4.99
2018-02-03T10:28:56.101Z,4.89
2018-02-03T10:29:56.092Z,4.95
2018-02-03T10:30:56.083Z,4.98
2018-02-03T10:31:56.079Z,4.95
2018-02-03T10:32:56.065Z,4.98
2018-02-03T10:33:56.061Z,5.07
2018-02-03T10:34:56.051Z,5.10
2018-02-03T10:35:56.047Z,5.13
2018-02-03T10:36:56.037Z,5.07
2018-02-03T10:37:56.028Z,5.12
2018-02-03T10:38:56.019Z,5.10
2018-02-03T10:39:56.011Z,5.14
2018-02-03T10:40:56.004Z,5.10
2018-02-03T10:41:55.994Z,5.12
2018-02-03T10:42:55.987Z,5.14
2018-02-03T10:43:55.977Z,5.09
2018-02-03T10:44:55.971Z,5.12
2018-02-03T10:45:55.961Z,5.14
2018-02-03T10:46:55.954Z,4.99
2018-02-03T10:47:55.948Z,4.98
2018-02-03T10:48:55.937Z,4.98
2018-02-03T10:49:55.931Z,5.07
2018-02-03T10:50:55.941Z,5.09
2018-02-03T10:51:55.916Z,5.14
2018-02-03T10:52:55.906Z,5.04
2018-02-03T10:53:55.904Z,4.94
2018-02-03T10:54:55.894Z,5.10
2018-02-03T10:55:55.881Z,5.05
2018-02-03T10:56:55.874Z,5.16
2018-02-03T10:57:55.868Z,5.30
2018-02-03T10:58:55.857Z,5.13
2018-02-03T10:59:55.851Z,5.28
2018-02-03T11:00:55.847Z,5.17
2018-02-03T11:01:55.835Z,5.17
2018-02-03T11:02:55.828Z,5.07
2018-02-03T11:03:55.819Z,5.13
2018-02-03T11:04:55.811Z,5.10
2018-02-03T11:05:55.804Z,4.95
2018-02-03T11:06:55.799Z,5.07
2018-02-03T11:07:55.789Z,5.12
2018-02-03T11:08:55.780Z,4.96
2018-02-03T11:09:55.772Z,5.04
2018-02-03T11:10:55.762Z,5.12
2018-02-03T11:11:55.755Z,5.17
2018-02-03T11:12:55.755Z,5.14
2018-02-03T11:13:55.740Z,5.12
2018-02-03T11:14:55.732Z,5.01
2018-02-03T11:15:55.729Z,5.17
2018-02-03T11:16:55.717Z,5.12
2018-02-03T11:17:55.707Z,5.13
2018-02-03T11:18:55.703Z,4.98
2018-02-03T11:19:55.697Z,4.80
2018-02-03T11:20:55.684Z,4.83
2018-02-03T11:21:55.679Z,4.99
2018-02-03T11:22:55.674Z,5.12
2018-02-03T11:23:55.662Z,5.14
2018-02-03T11:24:55.652Z,5.09
2018-02-03T11:25:55.646Z,4.99
2018-02-03T11:26:55.642Z,4.94
2018-02-03T11:27:55.629Z,5.02
2018-02-03T11:28:55.622Z,4.77
2018-02-03T11:29:55.620Z,4.86
2018-02-03T11:30:55.606Z,4.94
2018-02-03T11:31:55.620Z,4.73
2018-02-03T11:32:55.588Z,4.77
2018-02-03T11:33:55.583Z,4.92
2018-02-03T11:34:55.576Z,4.79
2018-02-03T11:36:03.732Z,4.95
2018-02-03T11:37:48.956Z,5.01
2018-02-03T11:38:57.625Z,4.99
2018-02-03T11:40:51.437Z,4.98
2018-02-03T11:41:42.304Z,4.99
2018-02-03T11:42:42.292Z,5.09
2018-02-03T11:43:42.287Z,5.02
2018-02-03T11:44:42.281Z,4.83
2018-02-03T11:47:11.919Z,5.13
2018-02-03T11:49:33.930Z,5.05
2018-02-03T11:50:32.518Z,5.10
2018-02-03T11:52:25.818Z,5.31
2018-02-03T11:53:16.710Z,5.32
2018-02-03T11:54:16.708Z,5.41
2018-02-03T11:55:16.713Z,5.52
2018-02-03T11:56:16.685Z,5.70
2018-02-03T11:57:16.689Z,5.30
2018-02-03T11:58:16.676Z,5.31
2018-02-03T11:59:16.660Z,5.38
2018-02-03T12:00:16.654Z,5.12
2018-02-03T12:01:16.650Z,5.09
2018-02-03T12:02:16.654Z,5.14
2018-02-03T12:03:16.630Z,5.25
2018-02-03T12:04:16.622Z,5.31
2018-02-03T12:05:16.625Z,5.38
2018-02-03T12:06:16.649Z,5.50
2018-02-03T12:07:16.595Z,5.53
2018-02-03T12:08:16.587Z,5.70
2018-02-03T12:09:16.670Z,5.71
2018-02-03T12:10:16.643Z,5.64
2018-02-03T12:11:16.566Z,5.35
2018-02-03T12:12:16.556Z,5.43
2018-02-03T12:13:16.551Z,5.49
2018-02-03T12:14:16.543Z,5.48
2018-02-03T12:15:16.534Z,5.31
2018-02-03T12:16:16.526Z,5.48
2018-02-03T12:17:23.725Z,5.40
2018-02-03T12:19:09.999Z,5.49
2018-02-03T12:20:09.890Z,5.43
2018-02-03T12:21:09.880Z,5.35
2018-02-03T12:22:09.892Z,5.38
2018-02-03T12:23:09.894Z,5.59
2018-02-03T12:24:09.866Z,5.59
2018-02-03T12:25:09.847Z,5.64
2018-02-03T12:26:09.845Z,5.60
2018-02-03T12:27:09.832Z,5.70
2018-02-03T12:28:09.860Z,5.75
2018-02-03T12:29:09.865Z,5.66
2018-02-03T12:30:09.808Z,5.88
2018-02-03T12:31:09.825Z,6.04
2018-02-03T12:32:09.796Z,6.09
2018-02-03T12:33:09.787Z,5.92
2018-02-03T12:34:09.780Z,6.36
2018-02-03T12:35:09.774Z,6.07
2018-02-03T12:36:09.763Z,6.21
2018-02-03T12:37:09.755Z,6.16
2018-02-03T12:38:09.749Z,6.06
2018-02-03T12:39:09.747Z,6.01
2018-02-03T12:40:09.738Z,6.21
2018-02-03T12:41:09.741Z,5.96
2018-02-03T12:42:09.718Z,6.03
2018-02-03T12:43:09.710Z,5.85
2018-02-03T12:44:09.701Z,5.78
2018-02-03T12:45:09.703Z,6.01
2018-02-03T12:46:16.859Z,5.96
2018-02-03T12:48:03.164Z,5.95
2018-02-03T12:49:03.070Z,5.91
2018-02-03T12:50:03.062Z,6.01
2018-02-03T12:51:03.058Z,5.98
2018-02-03T12:52:03.055Z,6.06
2018-02-03T12:53:10.255Z,5.95
2018-02-03T12:54:57.446Z,5.86
2018-02-03T12:55:57.450Z,5.95
2018-02-03T12:56:57.412Z,6.04
2018-02-03T12:57:57.395Z,6.19
2018-02-03T12:58:57.448Z,6.21
2018-02-03T12:59:57.529Z,6.14
2018-02-03T13:00:57.369Z,6.14
2018-02-03T13:01:57.370Z,6.33
2018-02-03T13:02:57.361Z,6.41
2018-02-03T13:03:57.355Z,6.33
2018-02-03T13:04:57.347Z,6.29
2018-02-03T13:05:57.334Z,6.43
2018-02-03T13:06:57.328Z,6.38
2018-02-03T13:07:57.329Z,6.26
2018-02-03T13:08:57.311Z,6.33
2018-02-03T13:09:57.313Z,6.29
2018-02-03T13:10:57.295Z,6.43
2018-02-03T13:11:57.290Z,6.62
2018-02-03T13:12:57.283Z,6.69
2018-02-03T13:13:57.276Z,6.98
2018-02-03T13:14:57.270Z,6.97
2018-02-03T13:15:57.263Z,7.31
2018-02-03T13:16:57.252Z,7.44
2018-02-03T13:17:57.249Z,7.15
2018-02-03T13:18:57.242Z,7.05
2018-02-03T13:19:57.233Z,7.26
2018-02-03T13:20:57.223Z,7.16
2018-02-03T13:21:57.219Z,7.16
2018-02-03T13:22:57.216Z,7.15
2018-02-03T13:23:57.272Z,7.19
2018-02-03T13:24:57.200Z,7.26
2018-02-03T13:25:57.206Z,7.15
2018-02-03T13:26:57.184Z,7.09
2018-02-03T13:27:57.180Z,7.20
2018-02-03T13:28:57.172Z,7.49
2018-02-03T13:29:57.165Z,7.32
2018-02-03T13:30:57.157Z,7.26
2018-02-03T13:31:57.160Z,7.15
2018-02-03T13:32:57.148Z,7.08
2018-02-03T13:33:57.145Z,6.89
2018-02-03T13:34:57.129Z,7.07
2018-02-03T13:35:57.123Z,7.08
2018-02-03T13:36:57.116Z,6.81
2018-02-03T13:37:57.110Z,6.71
2018-02-03T13:38:57.108Z,6.44
2018-02-03T13:39:57.097Z,6.69
2018-02-03T13:40:57.094Z,6.62
2018-02-03T13:41:57.124Z,6.41
2018-02-03T13:42:57.078Z,6.50
2018-02-03T13:43:57.072Z,6.63
2018-02-03T13:44:57.062Z,6.51
2018-02-03T13:45:57.056Z,6.51
2018-02-03T13:46:57.052Z,6.71
2018-02-03T13:47:57.044Z,6.54
2018-02-03T13:48:57.051Z,6.68
2018-02-03T13:49:57.032Z,6.95
2018-02-03T13:50:57.033Z,6.95
2018-02-03T13:51:57.015Z,6.65
2018-02-03T13:52:57.005Z,6.68
2018-02-03T13:53:57.001Z,6.58
2018-02-03T13:54:56.994Z,6.68
2018-02-03T13:55:56.994Z,6.46
2018-02-03T13:56:56.984Z,6.40
2018-02-03T13:57:56.973Z,6.43
2018-02-03T13:58:56.972Z,6.29
2018-02-03T13:59:56.963Z,6.00
2018-02-03T14:00:56.953Z,6.13
2018-02-03T14:01:56.945Z,6.18